Portada
METAR-TAF:

METAR-TAF

Aeroports :

Phnom Penh, Cambodja

latitud: 11-33N, longitud: 104-51E, altitud: 10 m

Observació

L'informe es va fer fa 17 minuts, a les 21:30 UTC
Vent 3 kt amb direcció variable
Temperatura 22°C
Humitat 78%
Pressió 1011 hPa
Visibilitat: 9000 m
Escasses núvols a una alçada de 1700 ft

METAR: VDPP 112130Z VRB03KT 9000 FEW017 22/18 Q1011

Hora: 04:47 (21:47 UTC)

Pronòstic

L'informe es va fer fa 4 hores i 47 minuts, a les 17:00 UTC
Pronòstic vàlid del 11 a les 18 UTC al 12 a les 12 UTC
Vent 8 kt del Nord/Nord-Est
Visibilitat 10 km o més
Núvols disperses a una alçada de 1700 ft

TAF: VDPP 111700Z 1118/1212 02008KT 9999 SCT017

Observacions i pronòstics meteorològics de més de 4000 aeroports (METAR i TAF).

Les estacions disponibles són els punts grocs i vermells al mapa.

Posi el ratolí al punt desitjat per veure el nom de l'estació.

Feu clic per veure les observacions i els pronòstics meteorològics.

Per canviar el mapa: feu clic els botons verds amb una creu de color negre per apropar; al botó verd amb un guió per allunyar la imatge; o en les fletxes verdes per a mapes adjacents.


METAR-TAF: